Cottle, West Virginia
Current Conditions -  °F | °C
As of 9:15 PM on Monday 22 Dec 2014 (Local Time) from KLWB Reporting Station
Haze Haze  
Wind Chill: 32°   Ceiling: 600
Heat Index: 37°   Visibility: 5mi
Dew Point: 35°   Wind: 6mph
Humidity: 93%   Direction: 80°E
Pressure: 30.02"   Gusts: NA
Location:  38.3055°N, 80.6105°W
Report Text: KLWB 230215Z AUTO 08005KT 5SM BR OVC006 03/02 A3002 RMK AO2 T00280018
Loading
Personal Weather Stations






























Interactive Weather Map New forecast layout! Learn more

10-Day Weather Forecast

Advertisements
Track Severe Weather on mobile